Time;durP1;ratioP1;P1;durP2;ratioP2;P2;SDS_P1;SDS_P2;PMS_P1;PMS_P2;Temp;Humidity;BMP_temperature;BMP_pressure;BME280_temperature;BME280_humidity;BME280_pressure;Samples;Min_cycle;Max_cycle;Signal;HPM_P1;HPM_P2
2021/10/31 00:01:19;;;;;;;17.83;10.60;;;9.50;99.90;;;;;;5077141;28;20452;-72
2021/10/31 00:03:45;;;;;;;16.37;11.00;;;9.50;99.90;;;;;;5074002;28;20496;-72
2021/10/31 00:06:11;;;;;;;23.30;14.00;;;9.50;99.90;;;;;;5078829;28;20738;-72
2021/10/31 00:08:37;;;;;;;19.80;12.53;;;9.50;99.90;;;;;;5069190;28;20215;-72
2021/10/31 00:11:03;;;;;;;18.63;13.00;;;9.50;99.90;;;;;;5058723;28;20691;-72
2021/10/31 00:13:29;;;;;;;20.07;12.30;;;9.50;99.90;;;;;;5089705;28;20551;-72
2021/10/31 00:15:55;;;;;;;17.17;11.33;;;9.50;99.90;;;;;;5088598;28;20284;-72
2021/10/31 00:18:22;;;;;;;16.63;12.00;;;9.50;99.90;;;;;;5093369;28;20461;-70
2021/10/31 00:20:47;;;;;;;14.00;9.70;;;9.50;99.90;;;;;;5054591;28;20218;-72
2021/10/31 00:23:13;;;;;;;17.83;11.17;;;9.50;99.90;;;;;;5087157;28;20501;-72
2021/10/31 00:25:39;;;;;;;16.20;11.03;;;9.50;99.90;;;;;;5073533;28;20306;-72
2021/10/31 00:28:05;;;;;;;20.00;12.87;;;9.50;99.90;;;;;;5080514;28;20229;-72
2021/10/31 00:30:31;;;;;;;18.07;12.00;;;9.50;99.90;;;;;;5051190;28;20525;-72
2021/10/31 00:32:56;;;;;;;15.40;11.40;;;9.50;99.90;;;;;;5085787;28;20225;-72
2021/10/31 00:35:22;;;;;;;13.90;11.43;;;9.50;99.90;;;;;;5083576;28;20283;-72
2021/10/31 00:37:48;;;;;;;16.20;11.50;;;9.50;99.90;;;;;;5073965;28;20236;-71
2021/10/31 00:40:14;;;;;;;18.90;12.20;;;9.50;99.90;;;;;;5077852;28;20461;-72
2021/10/31 00:42:40;;;;;;;18.07;12.10;;;9.50;99.90;;;;;;5076407;28;20215;-72
2021/10/31 00:45:07;;;;;;;18.00;12.30;;;9.50;99.90;;;;;;5066110;28;20457;-71
2021/10/31 00:47:32;;;;;;;19.70;12.40;;;9.50;99.90;;;;;;5080632;28;20544;-72
2021/10/31 00:49:59;;;;;;;15.60;10.90;;;9.50;99.90;;;;;;5071467;28;20591;-72
2021/10/31 00:52:27;;;;;;;16.70;11.47;;;9.50;99.90;;;;;;5066358;28;20267;-72
2021/10/31 00:54:54;;;;;;;17.03;11.73;;;9.50;99.90;;;;;;5054143;28;20457;-72
2021/10/31 00:57:20;;;;;;;12.70;10.00;;;9.50;99.90;;;;;;5072095;28;20452;-70
2021/10/31 00:59:46;;;;;;;16.57;11.17;;;9.50;99.90;;;;;;5055089;28;20596;-71
2021/10/31 01:02:14;;;;;;;15.20;10.70;;;9.50;99.90;;;;;;5066805;28;20491;-72
2021/10/31 01:04:45;;;;;;;15.07;10.80;;;9.50;99.90;;;;;;5066114;28;20223;-71
2021/10/31 01:07:24;;;;;;;16.50;9.83;;;9.50;99.90;;;;;;5064332;28;20967;-72
2021/10/31 01:10:05;;;;;;;12.53;9.60;;;9.50;99.90;;;;;;5064035;28;20481;-73
2021/10/31 01:13:05;;;;;;;14.77;10.00;;;9.50;99.90;;;;;;5048378;28;20839;-71
2021/10/31 01:16:03;;;;;;;15.30;10.90;;;9.50;99.90;;;;;;5049530;28;20998;-72
2021/10/31 01:18:38;;;;;;;15.07;10.40;;;9.50;99.90;;;;;;5055703;28;20499;-72
2021/10/31 01:21:12;;;;;;;17.90;10.70;;;9.50;99.90;;;;;;5064438;28;20478;-71
2021/10/31 01:24:06;;;;;;;18.67;11.50;;;9.50;99.90;;;;;;5048846;28;20468;-73
2021/10/31 01:27:19;;;;;;;13.47;10.10;;;9.50;99.90;;;;;;5060443;28;20465;-72
2021/10/31 01:30:03;;;;;;;14.50;10.40;;;9.50;99.90;;;;;;5045789;28;20458;-71
2021/10/31 01:32:32;;;;;;;14.67;10.00;;;9.50;99.90;;;;;;5045608;28;20511;-74
2021/10/31 01:35:39;;;;;;;15.87;10.93;;;9.50;99.90;;;;;;5045811;28;20471;-72
2021/10/31 01:38:14;;;;;;;13.23;9.60;;;9.50;99.90;;;;;;5053639;28;20449;-72
2021/10/31 01:41:04;;;;;;;14.00;10.70;;;9.50;99.90;;;;;;5050800;28;20511;-72
2021/10/31 01:43:40;;;;;;;22.83;10.50;;;9.50;99.90;;;;;;5069436;28;20492;-73
2021/10/31 01:46:21;;;;;;;16.00;10.27;;;9.50;99.90;;;;;;5060229;28;20512;-71
2021/10/31 01:49:18;;;;;;;14.17;11.30;;;9.50;99.90;;;;;;5069041;28;20514;-72
2021/10/31 01:51:51;;;;;;;14.47;9.70;;;9.50;99.90;;;;;;5058573;28;20533;-73
2021/10/31 01:54:21;;;;;;;13.67;10.00;;;9.50;99.90;;;;;;5048794;28;20998;-72
2021/10/31 01:56:59;;;;;;;14.00;10.60;;;9.50;99.90;;;;;;5062328;28;20553;-72
2021/10/31 01:59:28;;;;;;;13.90;9.30;;;9.50;99.90;;;;;;5044514;28;20461;-72
2021/10/31 02:01:55;;;;;;;18.43;10.53;;;9.50;99.90;;;;;;5047673;28;20505;-72
2021/10/31 02:04:24;;;;;;;14.27;9.57;;;9.50;99.90;;;;;;5046376;28;20463;-71
2021/10/31 02:06:51;;;;;;;14.67;10.33;;;9.50;99.90;;;;;;5052037;28;20885;-71
2021/10/31 02:09:21;;;;;;;14.77;10.63;;;9.50;99.90;;;;;;5074037;28;20980;-71
2021/10/31 02:11:48;;;;;;;12.00;10.13;;;9.50;99.90;;;;;;5045209;28;20470;-71
2021/10/31 02:14:15;;;;;;;16.10;10.80;;;9.50;99.90;;;;;;5059806;28;20473;-72
2021/10/31 02:16:41;;;;;;;14.10;9.87;;;9.50;99.90;;;;;;5048706;28;20457;-73
2021/10/31 02:19:15;;;;;;;15.33;10.00;;;9.50;99.90;;;;;;5052945;28;20453;-72
2021/10/31 02:21:40;;;;;;;15.63;9.93;;;9.50;99.90;;;;;;5046446;28;20455;-73
2021/10/31 02:24:08;;;;;;;15.93;10.33;;;9.50;99.90;;;;;;5063513;28;20884;-72
2021/10/31 02:26:38;;;;;;;12.13;10.57;;;9.50;99.90;;;;;;5049586;28;20228;-71
2021/10/31 02:29:07;;;;;;;13.67;9.60;;;9.50;99.90;;;;;;5048105;28;20469;-72
2021/10/31 02:31:35;;;;;;;14.50;10.07;;;9.50;99.90;;;;;;5049739;28;20502;-72
2021/10/31 02:34:00;;;;;;;15.20;10.17;;;9.50;99.90;;;;;;5054011;28;20519;-71
2021/10/31 02:36:26;;;;;;;13.33;9.50;;;9.50;99.90;;;;;;5067637;28;20461;-72
2021/10/31 02:38:52;;;;;;;12.80;9.47;;;9.50;99.90;;;;;;5066648;28;20229;-72
2021/10/31 02:41:18;;;;;;;15.30;11.27;;;9.50;99.90;;;;;;5060006;28;20294;-72
2021/10/31 02:43:44;;;;;;;12.03;9.30;;;9.50;99.90;;;;;;5047893;28;20228;-72
2021/10/31 02:46:09;;;;;;;13.90;10.30;;;9.50;99.90;;;;;;5063199;28;20223;-72
2021/10/31 02:48:37;;;;;;;15.97;10.23;;;9.40;99.90;;;;;;5049878;28;20354;-72
2021/10/31 02:51:22;;;;;;;11.57;8.70;;;9.40;99.90;;;;;;5051788;28;20310;-72
2021/10/31 02:53:55;;;;;;;12.80;9.83;;;9.30;99.90;;;;;;5031209;28;20867;-74
2021/10/31 02:56:55;;;;;;;14.47;9.70;;;9.30;99.90;;;;;;5048260;28;20858;-72
2021/10/31 02:59:29;;;;;;;12.57;8.83;;;9.30;99.90;;;;;;5029707;28;20468;-72
2021/10/31 03:01:58;;;;;;;19.43;9.10;;;9.30;99.90;;;;;;5033248;28;20699;-71
2021/10/31 03:04:26;;;;;;;12.93;9.37;;;9.30;99.90;;;;;;5048600;28;20520;-72
2021/10/31 03:06:56;;;;;;;12.30;8.20;;;9.30;99.90;;;;;;5048379;28;20469;-74
2021/10/31 03:09:22;;;;;;;14.23;10.03;;;9.20;99.90;;;;;;5060786;28;20458;-72
2021/10/31 03:11:48;;;;;;;16.23;10.00;;;9.20;99.90;;;;;;5049527;28;21011;-73
2021/10/31 03:14:13;;;;;;;12.50;8.77;;;9.20;99.90;;;;;;5046989;28;20235;-72
2021/10/31 03:16:39;;;;;;;12.10;8.67;;;9.20;99.90;;;;;;5039029;28;20232;-71
2021/10/31 03:19:05;;;;;;;14.30;9.43;;;9.20;99.90;;;;;;5046640;28;20725;-73
2021/10/31 03:21:30;;;;;;;15.07;9.60;;;9.10;99.90;;;;;;5048362;28;20231;-72
2021/10/31 03:23:56;;;;;;;11.73;8.47;;;9.20;99.90;;;;;;5032717;28;20224;-72
2021/10/31 03:26:23;;;;;;;14.37;9.93;;;9.20;99.90;;;;;;5049841;28;20235;-72
2021/10/31 03:28:48;;;;;;;13.70;10.00;;;9.20;99.90;;;;;;5068749;28;20224;-73
2021/10/31 03:31:14;;;;;;;14.40;9.00;;;9.20;99.90;;;;;;5047145;28;20459;-72
2021/10/31 03:33:40;;;;;;;16.10;9.27;;;9.20;99.90;;;;;;5064582;28;20231;-72
2021/10/31 03:36:05;;;;;;;15.70;8.43;;;9.20;99.90;;;;;;5066188;28;20228;-73
2021/10/31 03:38:31;;;;;;;11.70;9.20;;;9.10;99.90;;;;;;5062468;28;20708;-71
2021/10/31 03:40:56;;;;;;;15.30;9.00;;;9.20;99.90;;;;;;5060207;28;20234;-72
2021/10/31 03:43:22;;;;;;;12.07;9.37;;;9.20;99.90;;;;;;5052513;28;20223;-71
2021/10/31 03:45:50;;;;;;;14.87;8.87;;;9.10;99.90;;;;;;5053746;28;20309;-72
2021/10/31 03:48:16;;;;;;;11.90;8.77;;;9.10;99.90;;;;;;5048943;28;20608;-72
2021/10/31 03:50:42;;;;;;;15.50;9.23;;;9.10;99.90;;;;;;5050627;28;20546;-72
2021/10/31 03:53:07;;;;;;;12.93;9.00;;;9.10;99.90;;;;;;5064279;28;20600;-72
2021/10/31 03:55:33;;;;;;;12.63;8.80;;;9.20;99.90;;;;;;5076217;28;20251;-71
2021/10/31 03:57:59;;;;;;;15.17;9.53;;;9.10;99.90;;;;;;5065633;28;20604;-72
2021/10/31 04:00:24;;;;;;;12.80;8.80;;;9.10;99.90;;;;;;5042809;28;20222;-71
2021/10/31 04:02:50;;;;;;;13.07;9.57;;;9.10;99.90;;;;;;5058381;28;20649;-72
2021/10/31 04:05:16;;;;;;;14.23;9.10;;;9.10;99.90;;;;;;5045970;28;20219;-72
2021/10/31 04:07:47;;;;;;;11.83;9.13;;;9.10;99.90;;;;;;5065555;28;20224;-72
2021/10/31 04:10:13;;;;;;;13.77;9.83;;;9.10;99.90;;;;;;5047801;28;20219;-72
2021/10/31 04:12:39;;;;;;;13.90;9.87;;;9.10;99.90;;;;;;5067019;28;20880;-72
2021/10/31 04:15:06;;;;;;;14.57;9.20;;;9.10;99.90;;;;;;5066142;28;20454;-72
2021/10/31 04:17:32;;;;;;;15.83;9.90;;;9.10;99.90;;;;;;5049004;28;20224;-72
2021/10/31 04:19:58;;;;;;;12.00;9.07;;;9.00;99.90;;;;;;5067439;28;20467;-72
2021/10/31 04:22:24;;;;;;;15.70;9.47;;;9.00;99.90;;;;;;5046116;28;20454;-72
2021/10/31 04:24:49;;;;;;;13.77;9.23;;;9.10;99.90;;;;;;5066882;28;20467;-72
2021/10/31 04:27:15;;;;;;;11.67;8.13;;;9.00;99.90;;;;;;5062053;28;20377;-72
2021/10/31 04:29:41;;;;;;;12.90;9.07;;;9.00;99.90;;;;;;5063522;28;20273;-72
2021/10/31 04:32:07;;;;;;;12.20;9.80;;;9.00;99.90;;;;;;5049449;28;20223;-72
2021/10/31 04:34:33;;;;;;;13.57;9.97;;;9.00;99.90;;;;;;5044397;28;20454;-74
2021/10/31 04:37:00;;;;;;;13.13;8.70;;;9.00;99.90;;;;;;5046937;28;20474;-72
2021/10/31 04:39:26;;;;;;;16.53;9.63;;;9.00;99.90;;;;;;5039361;28;20298;-72
2021/10/31 04:41:53;;;;;;;12.10;8.37;;;9.00;99.90;;;;;;5053789;28;20544;-72
2021/10/31 04:44:18;;;;;;;13.40;9.20;;;9.00;99.90;;;;;;5032767;28;21026;-72
2021/10/31 04:46:44;;;;;;;13.33;8.80;;;8.90;99.90;;;;;;5047753;28;20463;-71
2021/10/31 04:49:10;;;;;;;15.13;10.00;;;8.90;99.90;;;;;;5032393;28;20219;-72
2021/10/31 04:51:35;;;;;;;16.57;10.07;;;8.90;99.90;;;;;;5059273;28;20226;-71
2021/10/31 04:54:01;;;;;;;14.63;10.07;;;8.90;99.90;;;;;;5047655;28;20659;-71
2021/10/31 04:56:27;;;;;;;14.67;9.77;;;8.90;99.90;;;;;;5058332;28;20231;-72
2021/10/31 04:58:54;;;;;;;14.53;9.60;;;8.90;99.90;;;;;;5068090;28;20704;-73
2021/10/31 05:01:20;;;;;;;14.97;8.63;;;8.90;99.90;;;;;;5058703;28;20523;-72
2021/10/31 05:03:46;;;;;;;15.10;10.73;;;8.90;99.90;;;;;;5072212;28;20472;-72
2021/10/31 05:06:12;;;;;;;14.93;9.97;;;8.90;99.90;;;;;;5029995;28;20526;-72
2021/10/31 05:08:38;;;;;;;15.23;10.30;;;8.90;99.90;;;;;;5070731;28;20982;-71
2021/10/31 05:11:04;;;;;;;12.67;8.77;;;8.90;99.90;;;;;;5041376;28;20223;-72
2021/10/31 05:13:29;;;;;;;14.20;9.70;;;8.90;99.90;;;;;;5067412;28;20288;-72
2021/10/31 05:15:56;;;;;;;12.83;9.50;;;8.90;99.90;;;;;;5067514;28;20239;-71
2021/10/31 05:18:22;;;;;;;14.20;9.53;;;8.90;99.90;;;;;;5034284;28;20211;-71
2021/10/31 05:20:47;;;;;;;11.73;9.00;;;8.80;99.90;;;;;;5051161;28;20470;-72
2021/10/31 05:23:13;;;;;;;11.43;8.93;;;8.90;99.90;;;;;;5045800;28;20220;-72
2021/10/31 05:25:38;;;;;;;12.23;9.37;;;8.90;99.90;;;;;;5030462;28;20223;-72
2021/10/31 05:28:04;;;;;;;14.20;9.70;;;8.80;99.90;;;;;;5046261;28;20310;-72
2021/10/31 05:30:30;;;;;;;11.60;8.53;;;8.90;99.90;;;;;;5047410;28;20220;-72
2021/10/31 05:32:56;;;;;;;11.10;8.17;;;8.80;99.90;;;;;;5047022;28;20220;-71
2021/10/31 05:35:21;;;;;;;11.97;9.03;;;8.80;99.90;;;;;;5054051;28;20716;-72
2021/10/31 05:37:53;;;;;;;10.73;8.57;;;8.80;99.90;;;;;;5065389;28;20230;-72
2021/10/31 05:40:19;;;;;;;12.70;8.33;;;8.80;99.90;;;;;;5049281;28;20219;-72
2021/10/31 05:42:45;;;;;;;12.13;8.20;;;8.80;99.90;;;;;;5058616;28;20462;-70
2021/10/31 05:45:11;;;;;;;12.10;8.87;;;8.80;99.90;;;;;;5056756;28;20224;-72
2021/10/31 05:47:38;;;;;;;10.47;8.13;;;8.80;99.90;;;;;;5063956;28;20219;-72
2021/10/31 05:50:09;;;;;;;12.47;9.20;;;8.90;99.90;;;;;;5065529;28;20449;-72
2021/10/31 05:52:35;;;;;;;15.20;9.73;;;8.80;99.90;;;;;;5067018;28;20556;-73
2021/10/31 05:55:01;;;;;;;13.37;9.57;;;8.80;99.90;;;;;;5062093;28;20536;-72
2021/10/31 05:57:27;;;;;;;13.20;9.70;;;8.80;99.90;;;;;;5055681;28;20448;-71
2021/10/31 05:59:54;;;;;;;13.03;8.67;;;8.90;99.90;;;;;;5068335;28;20461;-72
2021/10/31 06:02:19;;;;;;;13.87;8.77;;;8.80;99.90;;;;;;5040495;28;20512;-71
2021/10/31 06:04:46;;;;;;;14.73;10.20;;;8.80;99.90;;;;;;5050427;28;20488;-71
2021/10/31 06:07:12;;;;;;;14.77;9.77;;;8.80;99.90;;;;;;5069905;28;20250;-72
2021/10/31 06:09:38;;;;;;;20.07;11.80;;;8.90;99.90;;;;;;5061687;28;20461;-71
2021/10/31 06:12:05;;;;;;;19.40;11.60;;;8.80;99.90;;;;;;5068271;28;21034;-71
2021/10/31 06:14:32;;;;;;;20.63;12.60;;;8.80;99.90;;;;;;5054250;28;21021;-71
2021/10/31 06:16:58;;;;;;;22.00;12.80;;;8.80;99.90;;;;;;5051377;28;21019;-71
2021/10/31 06:19:24;;;;;;;19.10;12.10;;;8.80;99.90;;;;;;5061530;28;20528;-70
2021/10/31 06:21:49;;;;;;;23.13;12.53;;;8.80;99.90;;;;;;5086074;28;20620;-72
2021/10/31 06:24:15;;;;;;;17.50;11.73;;;8.80;99.90;;;;;;5077399;28;20305;-73
2021/10/31 06:26:41;;;;;;;16.67;11.80;;;8.80;99.90;;;;;;5040571;28;20637;-73
2021/10/31 06:29:06;;;;;;;22.87;11.60;;;8.80;99.90;;;;;;5033249;28;20243;-71
2021/10/31 06:31:32;;;;;;;13.50;10.20;;;8.80;99.90;;;;;;5050650;28;20224;-71
2021/10/31 06:33:57;;;;;;;15.80;10.60;;;8.80;99.90;;;;;;5050441;28;20231;-72
2021/10/31 06:36:23;;;;;;;16.40;9.93;;;8.90;99.90;;;;;;5049406;28;20235;-71
2021/10/31 06:38:49;;;;;;;16.53;10.77;;;8.80;99.90;;;;;;5034106;28;20356;-72
2021/10/31 06:41:14;;;;;;;19.33;14.83;;;8.90;99.90;;;;;;5048975;28;20311;-71
2021/10/31 06:43:40;;;;;;;23.70;17.10;;;8.90;99.90;;;;;;5050000;28;20216;-71
2021/10/31 06:46:06;;;;;;;23.57;15.90;;;8.90;99.90;;;;;;5050815;28;20228;-72
2021/10/31 06:48:33;;;;;;;23.23;14.03;;;8.90;99.90;;;;;;5063121;28;20223;-72
2021/10/31 06:50:58;;;;;;;19.40;11.63;;;8.90;99.90;;;;;;5050943;28;20458;-71
2021/10/31 06:53:24;;;;;;;22.23;12.77;;;8.90;99.90;;;;;;5056330;28;21003;-72
2021/10/31 06:55:50;;;;;;;15.50;10.33;;;8.90;99.90;;;;;;5051238;28;20344;-71
2021/10/31 06:58:15;;;;;;;17.07;12.10;;;8.90;99.90;;;;;;5076793;28;20225;-72
2021/10/31 07:00:41;;;;;;;14.23;10.37;;;8.90;99.90;;;;;;5060463;28;20278;-72
2021/10/31 07:03:07;;;;;;;15.93;10.93;;;8.90;99.90;;;;;;5055756;28;20227;-72
2021/10/31 07:05:33;;;;;;;22.60;12.37;;;8.90;99.90;;;;;;5052923;28;20488;-72
2021/10/31 07:07:58;;;;;;;18.40;12.77;;;8.90;99.90;;;;;;5047196;28;20702;-71
2021/10/31 07:10:24;;;;;;;23.10;13.47;;;8.90;99.90;;;;;;5051700;28;20223;-72
2021/10/31 07:12:50;;;;;;;16.33;12.43;;;8.90;99.90;;;;;;5066154;28;20231;-71
2021/10/31 07:15:16;;;;;;;18.43;12.73;;;8.90;99.90;;;;;;5056632;28;20469;-71
2021/10/31 07:17:42;;;;;;;16.40;11.40;;;9.00;99.90;;;;;;5080032;28;20220;-72
2021/10/31 07:20:10;;;;;;;18.10;11.87;;;8.90;99.90;;;;;;5048209;28;20323;-72
2021/10/31 07:22:36;;;;;;;14.17;11.13;;;8.90;99.90;;;;;;5048489;28;20475;-71
2021/10/31 07:25:04;;;;;;;16.10;10.30;;;8.90;99.90;;;;;;5080108;28;20465;-72
2021/10/31 07:27:30;;;;;;;12.43;10.00;;;9.00;99.90;;;;;;5032540;28;20239;-72
2021/10/31 07:29:56;;;;;;;16.80;11.23;;;9.00;99.90;;;;;;5050296;28;20504;-71
2021/10/31 07:32:23;;;;;;;14.30;9.90;;;8.90;99.90;;;;;;5052062;28;20273;-72
2021/10/31 07:34:48;;;;;;;18.03;11.20;;;9.00;99.90;;;;;;5043518;28;20263;-72
2021/10/31 07:37:15;;;;;;;17.20;11.17;;;9.00;99.90;;;;;;5048479;28;20493;-71
2021/10/31 07:39:42;;;;;;;16.97;9.67;;;9.00;99.90;;;;;;5057420;28;20227;-72
2021/10/31 07:42:08;;;;;;;18.73;10.00;;;9.00;99.90;;;;;;5081118;28;20457;-72
2021/10/31 07:44:34;;;;;;;17.80;11.10;;;9.00;99.90;;;;;;5032320;28;20467;-71
2021/10/31 07:46:59;;;;;;;18.10;10.87;;;9.00;99.90;;;;;;5048867;28;20224;-71
2021/10/31 07:49:25;;;;;;;12.70;9.57;;;9.00;99.90;;;;;;5055728;28;20466;-69
2021/10/31 07:51:51;;;;;;;16.53;9.93;;;9.10;99.90;;;;;;5075946;28;20227;-72
2021/10/31 07:54:23;;;;;;;16.00;10.27;;;9.10;99.90;;;;;;5067235;28;20747;-72
2021/10/31 07:56:50;;;;;;;20.20;12.60;;;9.10;99.90;;;;;;5044886;28;20848;-72
2021/10/31 07:59:17;;;;;;;18.00;12.50;;;9.10;99.90;;;;;;5049364;28;20995;-72
2021/10/31 08:01:42;;;;;;;14.67;10.37;;;9.10;99.90;;;;;;5054565;28;20453;-73
2021/10/31 08:04:08;;;;;;;13.60;9.80;;;9.20;99.90;;;;;;5048443;28;20469;-73
2021/10/31 08:06:34;;;;;;;18.03;12.10;;;9.20;99.90;;;;;;5070005;28;20229;-72
2021/10/31 08:09:00;;;;;;;15.90;11.23;;;9.20;99.90;;;;;;5068838;28;20605;-72
2021/10/31 08:11:25;;;;;;;13.43;9.67;;;9.20;99.90;;;;;;5055751;28;20309;-72
2021/10/31 08:13:51;;;;;;;13.93;10.17;;;9.20;99.90;;;;;;5048411;28;20228;-72
2021/10/31 08:16:17;;;;;;;14.33;10.00;;;9.20;99.90;;;;;;5048546;28;20239;-72
2021/10/31 08:18:42;;;;;;;15.43;10.70;;;9.20;99.90;;;;;;5057932;28;20736;-71
2021/10/31 08:21:09;;;;;;;19.20;11.07;;;9.30;99.90;;;;;;5036259;28;20298;-72
2021/10/31 08:23:35;;;;;;;14.40;10.93;;;9.30;99.90;;;;;;5048013;28;20228;-71
2021/10/31 08:26:01;;;;;;;15.87;10.63;;;9.30;99.90;;;;;;5047835;28;20474;-71
2021/10/31 08:28:28;;;;;;;15.20;10.10;;;9.40;99.90;;;;;;5047230;28;20950;-72
2021/10/31 08:31:00;;;;;;;20.53;13.50;;;9.40;99.90;;;;;;5055720;28;20461;-72
2021/10/31 08:33:31;;;;;;;20.83;14.97;;;9.40;99.90;;;;;;5070534;28;21037;-72
2021/10/31 08:35:57;;;;;;;18.00;13.50;;;9.50;99.90;;;;;;5041549;28;20485;-71
2021/10/31 08:38:23;;;;;;;21.47;12.80;;;9.50;99.90;;;;;;5056052;28;20954;-70
2021/10/31 08:40:50;;;;;;;19.77;12.33;;;9.60;99.90;;;;;;5051815;28;20286;-72
2021/10/31 08:43:17;;;;;;;16.17;9.87;;;9.70;99.90;;;;;;5037654;28;20545;-72
2021/10/31 08:45:43;;;;;;;14.00;10.63;;;9.70;99.90;;;;;;5047624;28;20458;-72
2021/10/31 08:48:13;;;;;;;18.10;11.60;;;9.80;99.90;;;;;;5046419;28;20466;-72
2021/10/31 08:50:39;;;;;;;12.33;10.30;;;9.90;99.90;;;;;;5047153;28;20485;-72
2021/10/31 08:53:08;;;;;;;13.27;9.70;;;10.00;99.90;;;;;;5056297;28;20490;-72
2021/10/31 08:55:36;;;;;;;15.60;11.30;;;10.10;99.90;;;;;;5052456;28;20481;-72
2021/10/31 08:58:10;;;;;;;12.27;9.70;;;10.10;99.90;;;;;;5063977;28;20466;-71
2021/10/31 09:00:39;;;;;;;16.33;9.97;;;10.10;99.90;;;;;;5042430;28;20461;-72
2021/10/31 09:03:06;;;;;;;14.53;10.17;;;10.20;99.90;;;;;;5066025;28;21005;-72
2021/10/31 09:05:33;;;;;;;15.40;10.90;;;10.20;99.90;;;;;;5068212;28;20515;-72
2021/10/31 09:08:00;;;;;;;13.40;10.00;;;10.20;99.90;;;;;;5084490;28;20461;-71
2021/10/31 09:10:26;;;;;;;15.90;10.00;;;10.20;99.90;;;;;;5083000;28;20525;-72
2021/10/31 09:12:52;;;;;;;15.20;10.73;;;10.20;99.90;;;;;;5050422;28;20466;-72
2021/10/31 09:15:18;;;;;;;16.67;11.70;;;10.30;99.90;;;;;;5067271;28;21093;-72
2021/10/31 09:17:44;;;;;;;16.90;11.27;;;10.30;99.90;;;;;;5050729;28;20215;-72
2021/10/31 09:20:10;;;;;;;16.33;11.27;;;10.30;99.90;;;;;;5066596;28;20230;-71
2021/10/31 09:22:37;;;;;;;16.40;11.80;;;10.40;99.90;;;;;;5061775;28;20473;-72
2021/10/31 09:25:03;;;;;;;17.77;12.13;;;10.40;99.90;;;;;;5066760;28;20907;-74
2021/10/31 09:27:29;;;;;;;16.67;11.60;;;10.50;99.90;;;;;;5065568;28;20215;-74
2021/10/31 09:29:55;;;;;;;15.83;11.30;;;10.60;99.90;;;;;;5047260;28;20485;-71
2021/10/31 09:32:27;;;;;;;16.07;11.60;;;10.70;99.90;;;;;;5065066;28;20211;-72
2021/10/31 09:34:54;;;;;;;17.10;12.20;;;10.80;99.90;;;;;;5038469;28;20250;-72
2021/10/31 09:37:19;;;;;;;17.87;11.67;;;10.80;99.90;;;;;;5048663;28;20508;-74
2021/10/31 09:39:45;;;;;;;18.30;11.60;;;10.90;99.90;;;;;;5066901;28;20238;-72
2021/10/31 09:42:12;;;;;;;18.33;12.60;;;11.00;99.90;;;;;;5064752;28;20229;-71
2021/10/31 09:44:48;;;;;;;18.33;13.20;;;11.00;99.90;;;;;;5066140;28;20227;-72
2021/10/31 09:47:15;;;;;;;14.87;11.60;;;11.10;99.90;;;;;;5082392;28;21051;-71
2021/10/31 09:49:41;;;;;;;18.20;12.43;;;11.10;99.90;;;;;;5050238;28;20531;-72
2021/10/31 09:52:07;;;;;;;17.20;12.07;;;11.20;99.90;;;;;;5048203;28;20955;-73
2021/10/31 09:54:33;;;;;;;16.00;12.20;;;11.20;99.90;;;;;;5048135;28;20978;-72
2021/10/31 09:56:59;;;;;;;18.10;12.83;;;11.30;99.90;;;;;;5066332;28;20611;-72
2021/10/31 09:59:27;;;;;;;16.17;11.50;;;11.30;99.90;;;;;;5047823;28;20211;-71
2021/10/31 10:04:36;;;;;;;17.40;13.00;;;11.50;99.90;;;;;;5066352;28;20462;-73
2021/10/31 10:07:04;;;;;;;17.43;12.30;;;11.60;99.90;;;;;;5049574;28;20500;-72
2021/10/31 10:09:31;;;;;;;18.10;12.00;;;11.70;99.90;;;;;;5066127;28;20595;-72
2021/10/31 10:12:00;;;;;;;20.47;13.27;;;11.70;99.90;;;;;;5049419;28;20465;-70
2021/10/31 10:14:29;;;;;;;17.37;13.10;;;11.70;99.90;;;;;;5048117;28;20468;-70
2021/10/31 10:16:59;;;;;;;15.40;12.40;;;11.80;99.90;;;;;;5049754;28;20492;-70
2021/10/31 10:19:33;;;;;;;17.80;12.50;;;11.90;99.90;;;;;;5054047;28;20454;-69
2021/10/31 10:21:59;;;;;;;16.53;12.23;;;11.90;99.90;;;;;;5067886;28;20840;-70
2021/10/31 10:24:25;;;;;;;21.40;15.93;;;12.00;99.90;;;;;;5081173;28;20472;-70
2021/10/31 10:26:56;;;;;;;32.77;20.27;;;12.00;99.90;;;;;;5066858;28;20234;-70
2021/10/31 10:29:27;;;;;;;26.60;16.97;;;12.10;99.90;;;;;;5065499;28;20457;-71
2021/10/31 10:31:59;;;;;;;23.90;16.60;;;12.10;99.90;;;;;;5065952;28;20523;-71
2021/10/31 10:34:34;;;;;;;19.57;14.00;;;12.20;99.90;;;;;;5081904;28;22461;-70
2021/10/31 10:37:07;;;;;;;16.97;11.90;;;12.30;99.90;;;;;;5066558;28;20469;-70
2021/10/31 10:39:34;;;;;;;19.30;13.13;;;12.30;99.90;;;;;;5066148;28;20467;-70
2021/10/31 10:41:59;;;;;;;21.50;14.17;;;12.40;99.90;;;;;;5042984;28;20544;-70
2021/10/31 10:44:29;;;;;;;19.77;11.97;;;12.40;99.90;;;;;;5067177;28;20480;-70
2021/10/31 10:47:12;;;;;;;15.60;11.80;;;12.40;99.90;;;;;;5069832;28;20227;-70
2021/10/31 10:49:44;;;;;;;13.80;11.20;;;12.50;99.90;;;;;;5068708;28;20938;-70
2021/10/31 10:52:29;;;;;;;14.03;11.50;;;12.50;99.90;;;;;;5060008;28;20470;-71
2021/10/31 10:54:58;;;;;;;15.73;11.73;;;12.60;99.90;;;;;;5070260;28;20473;-70
2021/10/31 10:57:25;;;;;;;14.50;10.63;;;12.70;99.90;;;;;;5066505;28;20485;-70
2021/10/31 10:59:53;;;;;;;18.63;13.30;;;12.70;99.90;;;;;;5057145;28;20836;-70
2021/10/31 11:02:20;;;;;;;14.47;11.80;;;12.80;99.90;;;;;;5062631;28;20464;-70
2021/10/31 11:05:08;;;;;;;17.27;12.97;;;12.90;99.90;;;;;;5063434;28;20464;-70
2021/10/31 11:07:43;;;;;;;17.47;11.80;;;13.00;99.90;;;;;;5072114;28;20450;-71
2021/10/31 11:10:24;;;;;;;17.30;12.93;;;13.00;99.90;;;;;;5080453;28;20537;-71
2021/10/31 11:12:58;;;;;;;13.73;10.60;;;13.20;99.90;;;;;;5032334;28;20855;-71
2021/10/31 11:15:30;;;;;;;11.40;10.27;;;13.30;99.90;;;;;;5064914;28;20460;-71
2021/10/31 11:17:58;;;;;;;14.67;11.30;;;13.40;99.90;;;;;;5065471;28;20853;-71
2021/10/31 11:20:30;;;;;;;14.80;10.90;;;13.50;99.90;;;;;;5050316;28;20461;-72
2021/10/31 11:23:00;;;;;;;18.03;12.50;;;13.60;99.90;;;;;;5083385;28;20461;-70
2021/10/31 11:25:28;;;;;;;16.43;11.10;;;13.70;99.90;;;;;;5082955;28;20461;-72
2021/10/31 11:27:55;;;;;;;16.90;12.60;;;13.70;99.90;;;;;;5067920;28;20536;-72
2021/10/31 11:30:22;;;;;;;15.27;11.50;;;13.80;99.90;;;;;;5067543;28;20599;-72
2021/10/31 11:32:50;;;;;;;12.77;9.93;;;13.80;99.90;;;;;;5052120;28;20492;-71
2021/10/31 11:35:18;;;;;;;11.77;9.60;;;13.90;99.90;;;;;;5066371;28;20461;-71
2021/10/31 11:37:59;;;;;;;11.73;10.23;;;13.90;99.90;;;;;;5068442;28;20465;-70
2021/10/31 11:40:48;;;;;;;10.97;8.63;;;14.00;99.90;;;;;;5067022;28;20457;-71
2021/10/31 11:43:25;;;;;;;11.13;8.97;;;14.00;99.90;;;;;;5083891;28;20460;-71
2021/10/31 11:45:53;;;;;;;10.10;8.60;;;14.10;99.90;;;;;;5084213;28;20978;-70
2021/10/31 11:48:19;;;;;;;10.97;8.23;;;14.10;99.90;;;;;;5065981;28;20989;-70
2021/10/31 11:51:00;;;;;;;10.20;8.57;;;14.20;99.90;;;;;;5052005;28;20457;-71
2021/10/31 11:53:28;;;;;;;14.40;9.13;;;14.20;99.90;;;;;;5048753;28;20299;-70
2021/10/31 11:55:58;;;;;;;11.27;8.17;;;14.30;99.90;;;;;;5050493;28;21006;-72
2021/10/31 11:58:34;;;;;;;11.13;8.03;;;14.30;99.90;;;;;;5067085;28;20462;-69
2021/10/31 12:01:05;;;;;;;11.70;8.30;;;14.40;99.90;;;;;;5068551;28;20452;-71
2021/10/31 12:03:43;;;;;;;19.50;14.63;;;14.50;99.90;;;;;;5066635;28;20963;-71
2021/10/31 12:06:15;;;;;;;20.33;13.87;;;14.50;99.90;;;;;;5045196;28;20457;-71
2021/10/31 12:08:43;;;;;;;17.00;14.10;;;14.50;99.90;;;;;;5064217;28;20995;-71
2021/10/31 12:11:09;;;;;;;18.00;15.23;;;14.60;99.90;;;;;;5082587;28;20473;-71
2021/10/31 12:13:44;;;;;;;14.20;12.80;;;14.60;99.90;;;;;;5067808;28;20840;-73
2021/10/31 12:16:13;;;;;;;11.47;10.30;;;14.70;99.90;;;;;;5065926;28;20226;-71
2021/10/31 12:18:56;;;;;;;11.00;9.90;;;14.70;99.90;;;;;;5047954;28;20457;-71
2021/10/31 12:21:33;;;;;;;9.00;7.67;;;14.80;99.90;;;;;;5064419;28;20553;-70
2021/10/31 12:24:00;;;;;;;13.83;12.53;;;14.90;99.90;;;;;;5068278;28;20453;-71
2021/10/31 12:26:31;;;;;;;10.03;9.03;;;15.00;99.90;;;;;;5065689;28;20453;-70
2021/10/31 12:29:16;;;;;;;10.50;7.80;;;15.10;99.90;;;;;;5065562;28;20480;-71
2021/10/31 12:31:51;;;;;;;8.20;7.40;;;15.10;99.90;;;;;;5063200;28;20485;-71
2021/10/31 12:34:20;;;;;;;8.23;6.53;;;15.10;99.90;;;;;;5065345;28;20461;-71
2021/10/31 12:36:49;;;;;;;6.37;5.47;;;15.10;99.90;;;;;;5078766;28;20473;-71
2021/10/31 12:39:31;;;;;;;10.60;6.97;;;15.10;99.90;;;;;;5058369;28;20500;-71
2021/10/31 12:42:29;;;;;;;7.20;5.83;;;15.20;99.90;;;;;;5067211;28;20449;-72
2021/10/31 12:45:14;;;;;;;6.57;5.57;;;15.10;99.90;;;;;;5064703;28;20469;-71
2021/10/31 12:47:42;;;;;;;7.67;6.00;;;15.10;99.90;;;;;;5067113;28;20986;-73
2021/10/31 12:50:29;;;;;;;6.77;5.90;;;15.10;99.90;;;;;;5066212;28;20540;-71